sensor_id;sensor_type;location;lat;lon;timestamp;temperature;humidity
53844;DHT22;39744;53.314;5.710;2023-11-19T00:02:10;13.20;99.90
53844;DHT22;39744;53.314;5.710;2023-11-19T00:04:36;13.70;99.90
53844;DHT22;39744;53.314;5.710;2023-11-19T00:07:02;11.40;99.90
53844;DHT22;39744;53.314;5.710;2023-11-19T00:09:33;13.20;99.90
53844;DHT22;39744;53.314;5.710;2023-11-19T00:11:59;12.20;99.90
53844;DHT22;39744;53.314;5.710;2023-11-19T00:14:25;13.90;99.90
53844;DHT22;39744;53.314;5.710;2023-11-19T00:16:51;13.70;99.90
53844;DHT22;39744;53.314;5.710;2023-11-19T00:19:18;11.20;99.90
53844;DHT22;39744;53.314;5.710;2023-11-19T00:21:43;12.10;99.90
53844;DHT22;39744;53.314;5.710;2023-11-19T00:24:09;12.80;99.90
53844;DHT22;39744;53.314;5.710;2023-11-19T00:26:34;12.20;99.90
53844;DHT22;39744;53.314;5.710;2023-11-19T00:29:00;11.80;99.90
53844;DHT22;39744;53.314;5.710;2023-11-19T00:31:26;12.20;99.90
53844;DHT22;39744;53.314;5.710;2023-11-19T00:33:53;12.50;99.90
53844;DHT22;39744;53.314;5.710;2023-11-19T00:36:18;11.60;99.90
53844;DHT22;39744;53.314;5.710;2023-11-19T00:38:44;13.00;99.90
53844;DHT22;39744;53.314;5.710;2023-11-19T00:41:10;13.90;99.90
53844;DHT22;39744;53.314;5.710;2023-11-19T00:43:35;13.30;99.90
53844;DHT22;39744;53.314;5.710;2023-11-19T00:46:01;13.00;99.90
53844;DHT22;39744;53.314;5.710;2023-11-19T00:48:29;11.50;99.90
53844;DHT22;39744;53.314;5.710;2023-11-19T00:50:54;12.50;99.90
53844;DHT22;39744;53.314;5.710;2023-11-19T00:53:20;12.50;99.90
53844;DHT22;39744;53.314;5.710;2023-11-19T00:55:45;11.20;99.90
53844;DHT22;39744;53.314;5.710;2023-11-19T00:58:11;12.40;99.90
53844;DHT22;39744;53.314;5.710;2023-11-19T01:00:36;12.90;99.90
53844;DHT22;39744;53.314;5.710;2023-11-19T01:03:02;12.50;99.90
53844;DHT22;39744;53.314;5.710;2023-11-19T01:05:27;13.10;99.90
53844;DHT22;39744;53.314;5.710;2023-11-19T01:07:53;12.30;99.90
53844;DHT22;39744;53.314;5.710;2023-11-19T01:10:19;13.50;99.90
53844;DHT22;39744;53.314;5.710;2023-11-19T01:12:45;12.70;99.90
53844;DHT22;39744;53.314;5.710;2023-11-19T01:15:11;12.80;99.90
53844;DHT22;39744;53.314;5.710;2023-11-19T01:17:38;11.20;99.90
53844;DHT22;39744;53.314;5.710;2023-11-19T01:20:04;13.00;99.90
53844;DHT22;39744;53.314;5.710;2023-11-19T01:22:31;12.00;99.90
53844;DHT22;39744;53.314;5.710;2023-11-19T01:24:57;11.50;99.90
53844;DHT22;39744;53.314;5.710;2023-11-19T01:27:26;11.50;99.90
53844;DHT22;39744;53.314;5.710;2023-11-19T01:29:52;11.50;99.90
53844;DHT22;39744;53.314;5.710;2023-11-19T01:32:18;12.60;99.90
53844;DHT22;39744;53.314;5.710;2023-11-19T01:34:43;11.70;99.90
53844;DHT22;39744;53.314;5.710;2023-11-19T01:37:09;12.40;99.90
53844;DHT22;39744;53.314;5.710;2023-11-19T01:39:35;11.50;99.90
53844;DHT22;39744;53.314;5.710;2023-11-19T01:42:01;11.90;99.90
53844;DHT22;39744;53.314;5.710;2023-11-19T01:44:26;11.50;99.90
53844;DHT22;39744;53.314;5.710;2023-11-19T01:46:52;11.40;99.90
53844;DHT22;39744;53.314;5.710;2023-11-19T01:49:18;11.10;99.90
53844;DHT22;39744;53.314;5.710;2023-11-19T01:51:44;11.40;99.90
53844;DHT22;39744;53.314;5.710;2023-11-19T01:54:09;11.40;99.90
53844;DHT22;39744;53.314;5.710;2023-11-19T01:56:35;10.90;99.90
53844;DHT22;39744;53.314;5.710;2023-11-19T01:59:02;10.90;99.90
53844;DHT22;39744;53.314;5.710;2023-11-19T02:01:28;11.20;99.90
53844;DHT22;39744;53.314;5.710;2023-11-19T02:03:55;11.00;99.90
53844;DHT22;39744;53.314;5.710;2023-11-19T02:06:20;11.20;99.90
53844;DHT22;39744;53.314;5.710;2023-11-19T02:08:46;11.10;99.90
53844;DHT22;39744;53.314;5.710;2023-11-19T02:11:11;11.40;99.90
53844;DHT22;39744;53.314;5.710;2023-11-19T02:13:37;11.20;99.90
53844;DHT22;39744;53.314;5.710;2023-11-19T02:16:03;11.30;99.90
53844;DHT22;39744;53.314;5.710;2023-11-19T02:18:29;11.00;99.90
53844;DHT22;39744;53.314;5.710;2023-11-19T02:20:55;11.20;99.90
53844;DHT22;39744;53.314;5.710;2023-11-19T02:23:21;11.00;99.90
53844;DHT22;39744;53.314;5.710;2023-11-19T02:25:48;11.10;99.90
53844;DHT22;39744;53.314;5.710;2023-11-19T02:28:16;10.90;99.90
53844;DHT22;39744;53.314;5.710;2023-11-19T02:30:42;10.80;99.90
53844;DHT22;39744;53.314;5.710;2023-11-19T02:33:07;11.00;99.90
53844;DHT22;39744;53.314;5.710;2023-11-19T02:35:33;11.00;99.90
53844;DHT22;39744;53.314;5.710;2023-11-19T02:38:01;10.90;99.90
53844;DHT22;39744;53.314;5.710;2023-11-19T02:40:29;10.90;99.90
53844;DHT22;39744;53.314;5.710;2023-11-19T02:42:55;10.80;99.90
53844;DHT22;39744;53.314;5.710;2023-11-19T02:45:24;11.00;99.90
53844;DHT22;39744;53.314;5.710;2023-11-19T02:47:50;11.10;99.90
53844;DHT22;39744;53.314;5.710;2023-11-19T02:50:17;11.00;99.90
53844;DHT22;39744;53.314;5.710;2023-11-19T02:52:43;11.00;99.90
53844;DHT22;39744;53.314;5.710;2023-11-19T02:55:12;10.80;99.90
53844;DHT22;39744;53.314;5.710;2023-11-19T02:57:40;10.90;99.90
53844;DHT22;39744;53.314;5.710;2023-11-19T03:00:16;11.00;99.90
53844;DHT22;39744;53.314;5.710;2023-11-19T03:02:43;10.90;99.90
53844;DHT22;39744;53.314;5.710;2023-11-19T03:05:13;11.00;99.90
53844;DHT22;39744;53.314;5.710;2023-11-19T03:07:40;11.00;99.90
53844;DHT22;39744;53.314;5.710;2023-11-19T03:10:06;11.10;99.90
53844;DHT22;39744;53.314;5.710;2023-11-19T03:12:32;10.70;99.90
53844;DHT22;39744;53.314;5.710;2023-11-19T03:14:57;11.00;99.90
53844;DHT22;39744;53.314;5.710;2023-11-19T03:17:23;10.80;99.90
53844;DHT22;39744;53.314;5.710;2023-11-19T03:19:49;10.80;99.90
53844;DHT22;39744;53.314;5.710;2023-11-19T03:22:15;10.90;99.90
53844;DHT22;39744;53.314;5.710;2023-11-19T03:24:40;10.70;99.90
53844;DHT22;39744;53.314;5.710;2023-11-19T03:27:06;10.90;99.90
53844;DHT22;39744;53.314;5.710;2023-11-19T03:29:31;10.90;99.90
53844;DHT22;39744;53.314;5.710;2023-11-19T03:31:57;10.60;99.90
53844;DHT22;39744;53.314;5.710;2023-11-19T03:34:23;10.60;99.90
53844;DHT22;39744;53.314;5.710;2023-11-19T03:36:48;10.80;99.90
53844;DHT22;39744;53.314;5.710;2023-11-19T03:39:14;10.80;99.90
53844;DHT22;39744;53.314;5.710;2023-11-19T03:41:39;10.80;99.90
53844;DHT22;39744;53.314;5.710;2023-11-19T03:44:05;10.60;99.90
53844;DHT22;39744;53.314;5.710;2023-11-19T03:46:31;10.70;99.90
53844;DHT22;39744;53.314;5.710;2023-11-19T03:48:56;10.70;99.90
53844;DHT22;39744;53.314;5.710;2023-11-19T03:51:22;10.60;99.90
53844;DHT22;39744;53.314;5.710;2023-11-19T03:53:47;10.60;99.90
53844;DHT22;39744;53.314;5.710;2023-11-19T03:56:13;10.50;99.90
53844;DHT22;39744;53.314;5.710;2023-11-19T03:58:39;10.40;99.90
53844;DHT22;39744;53.314;5.710;2023-11-19T04:01:05;10.60;99.90
53844;DHT22;39744;53.314;5.710;2023-11-19T04:03:30;10.60;99.90
53844;DHT22;39744;53.314;5.710;2023-11-19T04:05:56;10.50;99.90
53844;DHT22;39744;53.314;5.710;2023-11-19T04:08:22;10.40;99.90
53844;DHT22;39744;53.314;5.710;2023-11-19T04:10:47;10.30;99.90
53844;DHT22;39744;53.314;5.710;2023-11-19T04:13:13;10.50;99.90
53844;DHT22;39744;53.314;5.710;2023-11-19T04:15:39;10.30;99.90
53844;DHT22;39744;53.314;5.710;2023-11-19T04:18:04;10.30;99.90
53844;DHT22;39744;53.314;5.710;2023-11-19T04:20:30;10.50;99.90
53844;DHT22;39744;53.314;5.710;2023-11-19T04:22:57;10.50;99.90
53844;DHT22;39744;53.314;5.710;2023-11-19T04:25:22;10.40;99.90
53844;DHT22;39744;53.314;5.710;2023-11-19T04:27:49;10.50;99.90
53844;DHT22;39744;53.314;5.710;2023-11-19T04:30:15;10.60;99.90
53844;DHT22;39744;53.314;5.710;2023-11-19T04:32:40;10.50;99.90
53844;DHT22;39744;53.314;5.710;2023-11-19T04:35:06;10.50;99.90
53844;DHT22;39744;53.314;5.710;2023-11-19T04:37:32;10.50;99.90
53844;DHT22;39744;53.314;5.710;2023-11-19T04:39:58;10.50;99.90
53844;DHT22;39744;53.314;5.710;2023-11-19T04:42:25;10.60;99.90
53844;DHT22;39744;53.314;5.710;2023-11-19T04:44:50;10.40;99.90
53844;DHT22;39744;53.314;5.710;2023-11-19T04:47:16;10.50;99.90
53844;DHT22;39744;53.314;5.710;2023-11-19T04:49:41;10.40;99.90
53844;DHT22;39744;53.314;5.710;2023-11-19T04:52:10;10.50;99.90
53844;DHT22;39744;53.314;5.710;2023-11-19T04:54:40;10.40;99.90
53844;DHT22;39744;53.314;5.710;2023-11-19T04:57:06;10.40;99.90
53844;DHT22;39744;53.314;5.710;2023-11-19T04:59:38;10.40;99.90
53844;DHT22;39744;53.314;5.710;2023-11-19T05:02:04;10.40;99.90
53844;DHT22;39744;53.314;5.710;2023-11-19T05:04:29;10.50;99.90
53844;DHT22;39744;53.314;5.710;2023-11-19T05:06:55;10.50;99.90
53844;DHT22;39744;53.314;5.710;2023-11-19T05:09:21;10.40;99.90
53844;DHT22;39744;53.314;5.710;2023-11-19T05:11:46;10.40;99.90
53844;DHT22;39744;53.314;5.710;2023-11-19T05:14:12;10.30;99.90
53844;DHT22;39744;53.314;5.710;2023-11-19T05:16:40;10.40;99.90
53844;DHT22;39744;53.314;5.710;2023-11-19T05:19:06;10.40;99.90
53844;DHT22;39744;53.314;5.710;2023-11-19T05:21:32;10.40;99.90
53844;DHT22;39744;53.314;5.710;2023-11-19T05:23:57;10.20;99.90
53844;DHT22;39744;53.314;5.710;2023-11-19T05:26:23;10.30;99.90
53844;DHT22;39744;53.314;5.710;2023-11-19T05:28:49;10.30;99.90
53844;DHT22;39744;53.314;5.710;2023-11-19T05:31:15;10.20;99.90
53844;DHT22;39744;53.314;5.710;2023-11-19T05:33:41;10.30;99.90
53844;DHT22;39744;53.314;5.710;2023-11-19T05:36:06;10.20;99.90
53844;DHT22;39744;53.314;5.710;2023-11-19T05:38:34;10.20;99.90
53844;DHT22;39744;53.314;5.710;2023-11-19T05:40:59;10.30;99.90
53844;DHT22;39744;53.314;5.710;2023-11-19T05:43:25;10.30;99.90
53844;DHT22;39744;53.314;5.710;2023-11-19T05:45:50;10.40;99.90
53844;DHT22;39744;53.314;5.710;2023-11-19T05:48:16;10.30;99.90
53844;DHT22;39744;53.314;5.710;2023-11-19T05:50:42;10.20;99.90
53844;DHT22;39744;53.314;5.710;2023-11-19T05:53:09;10.30;99.90
53844;DHT22;39744;53.314;5.710;2023-11-19T05:55:39;10.30;99.90
53844;DHT22;39744;53.314;5.710;2023-11-19T05:58:14;10.30;99.90
53844;DHT22;39744;53.314;5.710;2023-11-19T06:00:39;10.30;99.90
53844;DHT22;39744;53.314;5.710;2023-11-19T06:03:06;10.30;99.90
53844;DHT22;39744;53.314;5.710;2023-11-19T06:05:32;10.20;99.90
53844;DHT22;39744;53.314;5.710;2023-11-19T06:07:58;10.30;99.90
53844;DHT22;39744;53.314;5.710;2023-11-19T06:10:23;10.30;99.90
53844;DHT22;39744;53.314;5.710;2023-11-19T06:12:59;10.30;99.90
53844;DHT22;39744;53.314;5.710;2023-11-19T06:15:28;10.30;99.90
53844;DHT22;39744;53.314;5.710;2023-11-19T06:17:53;10.20;99.90
53844;DHT22;39744;53.314;5.710;2023-11-19T06:20:20;10.30;99.90
53844;DHT22;39744;53.314;5.710;2023-11-19T06:22:45;10.30;99.90
53844;DHT22;39744;53.314;5.710;2023-11-19T06:25:12;10.20;99.90
53844;DHT22;39744;53.314;5.710;2023-11-19T06:27:40;10.00;99.90
53844;DHT22;39744;53.314;5.710;2023-11-19T06:30:06;10.20;99.90
53844;DHT22;39744;53.314;5.710;2023-11-19T06:32:32;10.10;99.90
53844;DHT22;39744;53.314;5.710;2023-11-19T06:34:58;10.20;99.90
53844;DHT22;39744;53.314;5.710;2023-11-19T06:37:23;10.20;99.90
53844;DHT22;39744;53.314;5.710;2023-11-19T06:39:49;10.20;99.90
53844;DHT22;39744;53.314;5.710;2023-11-19T06:42:14;10.20;99.90
53844;DHT22;39744;53.314;5.710;2023-11-19T06:44:40;10.20;99.90
53844;DHT22;39744;53.314;5.710;2023-11-19T06:47:05;10.30;99.90
53844;DHT22;39744;53.314;5.710;2023-11-19T06:49:31;10.20;99.90
53844;DHT22;39744;53.314;5.710;2023-11-19T06:51:57;10.20;99.90
53844;DHT22;39744;53.314;5.710;2023-11-19T06:54:23;10.30;99.90
53844;DHT22;39744;53.314;5.710;2023-11-19T06:56:49;10.20;99.90
53844;DHT22;39744;53.314;5.710;2023-11-19T06:59:14;10.20;99.90
53844;DHT22;39744;53.314;5.710;2023-11-19T07:01:40;10.10;99.90
53844;DHT22;39744;53.314;5.710;2023-11-19T07:04:12;10.10;99.90
53844;DHT22;39744;53.314;5.710;2023-11-19T07:06:37;10.10;99.90
53844;DHT22;39744;53.314;5.710;2023-11-19T07:09:03;10.20;99.90
53844;DHT22;39744;53.314;5.710;2023-11-19T07:11:38;10.20;99.90
53844;DHT22;39744;53.314;5.710;2023-11-19T07:14:04;10.20;99.90
53844;DHT22;39744;53.314;5.710;2023-11-19T07:16:29;10.30;99.90
53844;DHT22;39744;53.314;5.710;2023-11-19T07:18:55;10.30;99.90
53844;DHT22;39744;53.314;5.710;2023-11-19T07:21:21;10.30;99.90
53844;DHT22;39744;53.314;5.710;2023-11-19T07:23:47;10.30;99.90
53844;DHT22;39744;53.314;5.710;2023-11-19T07:26:12;10.30;99.90
53844;DHT22;39744;53.314;5.710;2023-11-19T07:28:38;10.30;99.90
53844;DHT22;39744;53.314;5.710;2023-11-19T07:31:05;10.30;99.90
53844;DHT22;39744;53.314;5.710;2023-11-19T07:33:33;10.20;99.90
53844;DHT22;39744;53.314;5.710;2023-11-19T07:35:58;10.20;99.90
53844;DHT22;39744;53.314;5.710;2023-11-19T07:38:24;10.20;99.90
53844;DHT22;39744;53.314;5.710;2023-11-19T07:40:50;10.40;99.90
53844;DHT22;39744;53.314;5.710;2023-11-19T07:43:15;10.40;99.90
53844;DHT22;39744;53.314;5.710;2023-11-19T07:45:41;10.50;99.90
53844;DHT22;39744;53.314;5.710;2023-11-19T07:48:09;10.40;99.90
53844;DHT22;39744;53.314;5.710;2023-11-19T07:50:34;10.40;99.90
53844;DHT22;39744;53.314;5.710;2023-11-19T07:53:00;10.40;99.90
53844;DHT22;39744;53.314;5.710;2023-11-19T07:55:25;10.50;99.90
53844;DHT22;39744;53.314;5.710;2023-11-19T07:57:52;10.40;99.90
53844;DHT22;39744;53.314;5.710;2023-11-19T08:00:18;10.50;99.90
53844;DHT22;39744;53.314;5.710;2023-11-19T08:02:45;10.50;99.90
53844;DHT22;39744;53.314;5.710;2023-11-19T08:05:10;10.40;99.90
53844;DHT22;39744;53.314;5.710;2023-11-19T08:07:37;10.50;99.90
53844;DHT22;39744;53.314;5.710;2023-11-19T08:10:02;10.50;99.90
53844;DHT22;39744;53.314;5.710;2023-11-19T08:12:28;10.50;99.90
53844;DHT22;39744;53.314;5.710;2023-11-19T08:14:53;10.50;99.90
53844;DHT22;39744;53.314;5.710;2023-11-19T08:17:19;10.50;99.90
53844;DHT22;39744;53.314;5.710;2023-11-19T08:19:44;10.60;99.90
53844;DHT22;39744;53.314;5.710;2023-11-19T08:22:10;10.60;99.90
53844;DHT22;39744;53.314;5.710;2023-11-19T08:24:35;10.70;99.90
53844;DHT22;39744;53.314;5.710;2023-11-19T08:27:01;10.70;99.90
53844;DHT22;39744;53.314;5.710;2023-11-19T08:29:27;10.70;99.90
53844;DHT22;39744;53.314;5.710;2023-11-19T08:31:53;10.70;99.90
53844;DHT22;39744;53.314;5.710;2023-11-19T08:34:18;10.80;99.90
53844;DHT22;39744;53.314;5.710;2023-11-19T08:36:44;10.70;99.90
53844;DHT22;39744;53.314;5.710;2023-11-19T08:39:10;10.80;99.90
53844;DHT22;39744;53.314;5.710;2023-11-19T08:41:35;10.90;99.90
53844;DHT22;39744;53.314;5.710;2023-11-19T08:44:03;10.90;99.90
53844;DHT22;39744;53.314;5.710;2023-11-19T08:46:30;11.00;99.90
53844;DHT22;39744;53.314;5.710;2023-11-19T08:48:55;11.10;99.90
53844;DHT22;39744;53.314;5.710;2023-11-19T08:51:23;11.10;99.90
53844;DHT22;39744;53.314;5.710;2023-11-19T08:53:50;11.10;99.90
53844;DHT22;39744;53.314;5.710;2023-11-19T08:56:15;11.10;99.90
53844;DHT22;39744;53.314;5.710;2023-11-19T08:58:41;11.00;99.90
53844;DHT22;39744;53.314;5.710;2023-11-19T09:01:06;11.00;99.90
53844;DHT22;39744;53.314;5.710;2023-11-19T09:03:32;11.10;99.90
53844;DHT22;39744;53.314;5.710;2023-11-19T09:05:57;11.00;99.90
53844;DHT22;39744;53.314;5.710;2023-11-19T09:08:23;11.00;99.90
53844;DHT22;39744;53.314;5.710;2023-11-19T09:10:49;11.00;99.90
53844;DHT22;39744;53.314;5.710;2023-11-19T09:13:14;11.00;99.90
53844;DHT22;39744;53.314;5.710;2023-11-19T09:15:40;11.00;99.90
53844;DHT22;39744;53.314;5.710;2023-11-19T09:18:07;11.00;99.90
53844;DHT22;39744;53.314;5.710;2023-11-19T09:20:33;11.10;99.90
53844;DHT22;39744;53.314;5.710;2023-11-19T09:23:04;11.10;99.90
53844;DHT22;39744;53.314;5.710;2023-11-19T09:25:30;11.10;99.90
53844;DHT22;39744;53.314;5.710;2023-11-19T09:27:56;11.10;99.90
53844;DHT22;39744;53.314;5.710;2023-11-19T09:30:21;11.30;99.90
53844;DHT22;39744;53.314;5.710;2023-11-19T09:32:48;11.30;99.90
53844;DHT22;39744;53.314;5.710;2023-11-19T09:35:13;11.30;99.90
53844;DHT22;39744;53.314;5.710;2023-11-19T09:37:40;11.30;99.90
53844;DHT22;39744;53.314;5.710;2023-11-19T09:40:06;11.30;99.90
53844;DHT22;39744;53.314;5.710;2023-11-19T09:42:42;11.40;99.90
53844;DHT22;39744;53.314;5.710;2023-11-19T09:45:11;11.40;99.90
53844;DHT22;39744;53.314;5.710;2023-11-19T09:47:38;11.40;99.90
53844;DHT22;39744;53.314;5.710;2023-11-19T09:50:03;11.50;99.90
53844;DHT22;39744;53.314;5.710;2023-11-19T09:52:30;11.50;99.90
53844;DHT22;39744;53.314;5.710;2023-11-19T09:54:56;11.60;99.90
53844;DHT22;39744;53.314;5.710;2023-11-19T09:57:22;11.70;99.90
53844;DHT22;39744;53.314;5.710;2023-11-19T09:59:47;11.80;99.90
53844;DHT22;39744;53.314;5.710;2023-11-19T10:02:13;11.70;99.90
53844;DHT22;39744;53.314;5.710;2023-11-19T10:04:39;11.70;99.90
53844;DHT22;39744;53.314;5.710;2023-11-19T10:07:06;11.60;99.90
53844;DHT22;39744;53.314;5.710;2023-11-19T10:09:31;11.50;99.90
53844;DHT22;39744;53.314;5.710;2023-11-19T10:11:57;11.50;99.90
53844;DHT22;39744;53.314;5.710;2023-11-19T10:14:23;11.50;99.90
53844;DHT22;39744;53.314;5.710;2023-11-19T10:16:48;11.50;99.90
53844;DHT22;39744;53.314;5.710;2023-11-19T10:19:20;11.50;99.90
53844;DHT22;39744;53.314;5.710;2023-11-19T10:21:46;11.40;99.90
53844;DHT22;39744;53.314;5.710;2023-11-19T10:24:12;11.50;99.90
53844;DHT22;39744;53.314;5.710;2023-11-19T10:26:37;11.50;99.90
53844;DHT22;39744;53.314;5.710;2023-11-19T10:29:03;11.40;99.90
53844;DHT22;39744;53.314;5.710;2023-11-19T10:31:29;11.40;99.90
53844;DHT22;39744;53.314;5.710;2023-11-19T10:33:54;11.50;99.90
53844;DHT22;39744;53.314;5.710;2023-11-19T10:36:20;11.50;99.90
53844;DHT22;39744;53.314;5.710;2023-11-19T10:38:52;11.50;99.90
53844;DHT22;39744;53.314;5.710;2023-11-19T10:41:28;11.60;99.90
53844;DHT22;39744;53.314;5.710;2023-11-19T10:43:54;11.60;99.90
53844;DHT22;39744;53.314;5.710;2023-11-19T10:46:19;11.50;99.90
53844;DHT22;39744;53.314;5.710;2023-11-19T10:48:48;11.70;99.90
53844;DHT22;39744;53.314;5.710;2023-11-19T10:51:14;11.70;99.90
53844;DHT22;39744;53.314;5.710;2023-11-19T10:53:46;11.60;99.90
53844;DHT22;39744;53.314;5.710;2023-11-19T10:56:14;11.60;99.90
53844;DHT22;39744;53.314;5.710;2023-11-19T10:58:44;11.50;99.90
53844;DHT22;39744;53.314;5.710;2023-11-19T11:01:16;11.50;99.90
53844;DHT22;39744;53.314;5.710;2023-11-19T11:03:43;11.50;99.90
53844;DHT22;39744;53.314;5.710;2023-11-19T11:06:11;11.50;99.90
53844;DHT22;39744;53.314;5.710;2023-11-19T11:08:37;11.50;99.90
53844;DHT22;39744;53.314;5.710;2023-11-19T11:11:04;11.60;99.90
53844;DHT22;39744;53.314;5.710;2023-11-19T11:13:31;11.50;99.90
53844;DHT22;39744;53.314;5.710;2023-11-19T11:15:57;11.50;99.90
53844;DHT22;39744;53.314;5.710;2023-11-19T11:18:26;11.40;99.90
53844;DHT22;39744;53.314;5.710;2023-11-19T11:20:52;11.30;99.90
53844;DHT22;39744;53.314;5.710;2023-11-19T11:23:32;11.40;99.90
53844;DHT22;39744;53.314;5.710;2023-11-19T11:26:16;11.50;99.90
53844;DHT22;39744;53.314;5.710;2023-11-19T11:31:26;11.30;99.90
53844;DHT22;39744;53.314;5.710;2023-11-19T11:34:00;11.00;99.90
53844;DHT22;39744;53.314;5.710;2023-11-19T11:36:33;11.00;99.90
53844;DHT22;39744;53.314;5.710;2023-11-19T11:39:01;10.90;99.90
53844;DHT22;39744;53.314;5.710;2023-11-19T11:41:27;10.80;99.90
53844;DHT22;39744;53.314;5.710;2023-11-19T11:43:53;11.00;99.90
53844;DHT22;39744;53.314;5.710;2023-11-19T11:49:02;11.00;99.90
53844;DHT22;39744;53.314;5.710;2023-11-19T11:54:31;11.10;99.90
53844;DHT22;39744;53.314;5.710;2023-11-19T11:59:36;11.10;99.90
53844;DHT22;39744;53.314;5.710;2023-11-19T12:02:02;11.20;99.90
53844;DHT22;39744;53.314;5.710;2023-11-19T12:04:28;11.10;99.90
53844;DHT22;39744;53.314;5.710;2023-11-19T12:10:07;11.20;99.90
53844;DHT22;39744;53.314;5.710;2023-11-19T12:12:33;11.30;99.90
53844;DHT22;39744;53.314;5.710;2023-11-19T12:15:01;11.30;99.90
53844;DHT22;39744;53.314;5.710;2023-11-19T12:20:05;11.30;99.90
53844;DHT22;39744;53.314;5.710;2023-11-19T12:22:35;11.30;99.90
53844;DHT22;39744;53.314;5.710;2023-11-19T12:25:01;11.30;99.90
53844;DHT22;39744;53.314;5.710;2023-11-19T12:27:27;11.20;99.90
53844;DHT22;39744;53.314;5.710;2023-11-19T12:29:53;11.20;99.90
53844;DHT22;39744;53.314;5.710;2023-11-19T12:32:19;11.20;99.90
53844;DHT22;39744;53.314;5.710;2023-11-19T12:34:45;11.20;99.90
53844;DHT22;39744;53.314;5.710;2023-11-19T12:37:11;11.20;99.90
53844;DHT22;39744;53.314;5.710;2023-11-19T12:39:37;11.10;99.90
53844;DHT22;39744;53.314;5.710;2023-11-19T12:42:02;11.20;99.90
53844;DHT22;39744;53.314;5.710;2023-11-19T12:44:28;11.20;99.90
53844;DHT22;39744;53.314;5.710;2023-11-19T12:47:06;11.10;99.90
53844;DHT22;39744;53.314;5.710;2023-11-19T12:49:35;11.20;99.90
53844;DHT22;39744;53.314;5.710;2023-11-19T12:52:10;11.20;99.90
53844;DHT22;39744;53.314;5.710;2023-11-19T12:54:36;11.20;99.90
53844;DHT22;39744;53.314;5.710;2023-11-19T12:57:02;11.30;99.90
53844;DHT22;39744;53.314;5.710;2023-11-19T12:59:28;11.30;99.90
53844;DHT22;39744;53.314;5.710;2023-11-19T13:01:54;11.30;99.90
53844;DHT22;39744;53.314;5.710;2023-11-19T13:04:20;11.40;99.90
53844;DHT22;39744;53.314;5.710;2023-11-19T13:06:46;11.40;99.90
53844;DHT22;39744;53.314;5.710;2023-11-19T13:09:22;11.50;99.90
53844;DHT22;39744;53.314;5.710;2023-11-19T13:11:49;11.40;99.90
53844;DHT22;39744;53.314;5.710;2023-11-19T13:14:18;11.30;99.90
53844;DHT22;39744;53.314;5.710;2023-11-19T13:16:44;11.40;99.90
53844;DHT22;39744;53.314;5.710;2023-11-19T13:19:10;11.30;99.90
53844;DHT22;39744;53.314;5.710;2023-11-19T13:21:36;11.30;99.90
53844;DHT22;39744;53.314;5.710;2023-11-19T13:24:03;11.30;99.90
53844;DHT22;39744;53.314;5.710;2023-11-19T13:26:28;11.30;99.90
53844;DHT22;39744;53.314;5.710;2023-11-19T13:28:54;11.30;99.90
53844;DHT22;39744;53.314;5.710;2023-11-19T13:31:20;11.40;99.90
53844;DHT22;39744;53.314;5.710;2023-11-19T13:33:45;11.30;99.90
53844;DHT22;39744;53.314;5.710;2023-11-19T13:36:11;11.30;99.90
53844;DHT22;39744;53.314;5.710;2023-11-19T13:38:36;11.30;99.90
53844;DHT22;39744;53.314;5.710;2023-11-19T13:41:02;11.30;99.90
53844;DHT22;39744;53.314;5.710;2023-11-19T13:43:28;11.20;99.90
53844;DHT22;39744;53.314;5.710;2023-11-19T13:45:54;11.20;99.90
53844;DHT22;39744;53.314;5.710;2023-11-19T13:48:20;11.20;99.90
53844;DHT22;39744;53.314;5.710;2023-11-19T13:50:45;11.20;99.90
53844;DHT22;39744;53.314;5.710;2023-11-19T13:53:11;11.10;99.90
53844;DHT22;39744;53.314;5.710;2023-11-19T13:55:36;11.10;99.90
53844;DHT22;39744;53.314;5.710;2023-11-19T13:58:02;11.10;99.90
53844;DHT22;39744;53.314;5.710;2023-11-19T14:00:27;11.20;99.90
53844;DHT22;39744;53.314;5.710;2023-11-19T14:02:53;11.20;99.90
53844;DHT22;39744;53.314;5.710;2023-11-19T14:05:19;11.10;99.90
53844;DHT22;39744;53.314;5.710;2023-11-19T14:07:44;11.10;99.90
53844;DHT22;39744;53.314;5.710;2023-11-19T14:10:13;11.00;99.90
53844;DHT22;39744;53.314;5.710;2023-11-19T14:12:39;11.00;99.90
53844;DHT22;39744;53.314;5.710;2023-11-19T14:15:09;11.00;99.90
53844;DHT22;39744;53.314;5.710;2023-11-19T14:17:35;11.00;99.90
53844;DHT22;39744;53.314;5.710;2023-11-19T14:20:01;11.00;99.90
53844;DHT22;39744;53.314;5.710;2023-11-19T14:22:28;11.00;99.90
53844;DHT22;39744;53.314;5.710;2023-11-19T14:24:55;10.90;99.90
53844;DHT22;39744;53.314;5.710;2023-11-19T14:27:21;10.90;99.90
53844;DHT22;39744;53.314;5.710;2023-11-19T14:29:47;10.80;99.90
53844;DHT22;39744;53.314;5.710;2023-11-19T14:32:13;10.90;99.90
53844;DHT22;39744;53.314;5.710;2023-11-19T14:34:38;10.80;99.90
53844;DHT22;39744;53.314;5.710;2023-11-19T14:37:04;10.90;99.90
53844;DHT22;39744;53.314;5.710;2023-11-19T14:39:30;10.90;99.90
53844;DHT22;39744;53.314;5.710;2023-11-19T14:41:57;10.90;99.90
53844;DHT22;39744;53.314;5.710;2023-11-19T14:44:26;10.90;99.90
53844;DHT22;39744;53.314;5.710;2023-11-19T14:46:52;10.90;99.90
53844;DHT22;39744;53.314;5.710;2023-11-19T14:49:17;11.00;99.90
53844;DHT22;39744;53.314;5.710;2023-11-19T14:51:43;11.00;99.90
53844;DHT22;39744;53.314;5.710;2023-11-19T14:54:08;11.00;99.90
53844;DHT22;39744;53.314;5.710;2023-11-19T14:56:34;11.00;99.90
53844;DHT22;39744;53.314;5.710;2023-11-19T14:58:59;11.00;99.90
53844;DHT22;39744;53.314;5.710;2023-11-19T15:01:25;11.00;99.90
53844;DHT22;39744;53.314;5.710;2023-11-19T15:03:51;10.90;99.90
53844;DHT22;39744;53.314;5.710;2023-11-19T15:06:16;10.90;99.90
53844;DHT22;39744;53.314;5.710;2023-11-19T15:08:42;10.90;99.90
53844;DHT22;39744;53.314;5.710;2023-11-19T15:11:07;11.00;99.90
53844;DHT22;39744;53.314;5.710;2023-11-19T15:13:37;10.90;99.90
53844;DHT22;39744;53.314;5.710;2023-11-19T15:16:03;11.00;99.90
53844;DHT22;39744;53.314;5.710;2023-11-19T15:18:31;10.90;99.90
53844;DHT22;39744;53.314;5.710;2023-11-19T15:20:56;11.00;99.90
53844;DHT22;39744;53.314;5.710;2023-11-19T15:23:22;10.90;99.90
53844;DHT22;39744;53.314;5.710;2023-11-19T15:25:47;10.90;99.90
53844;DHT22;39744;53.314;5.710;2023-11-19T15:28:14;11.00;99.90
53844;DHT22;39744;53.314;5.710;2023-11-19T15:30:43;10.90;99.90
53844;DHT22;39744;53.314;5.710;2023-11-19T15:33:08;10.80;99.90
53844;DHT22;39744;53.314;5.710;2023-11-19T15:35:34;10.80;99.90
53844;DHT22;39744;53.314;5.710;2023-11-19T15:38:00;10.70;99.90
53844;DHT22;39744;53.314;5.710;2023-11-19T15:40:25;10.70;99.90
53844;DHT22;39744;53.314;5.710;2023-11-19T15:42:52;10.60;99.90